createdAt,value
2024-03-02T00:01:38.412Z,99836.90
2024-03-02T00:04:08.003Z,99836.42
2024-03-02T00:06:36.200Z,99835.67
2024-03-02T00:09:04.369Z,99835.77
2024-03-02T00:11:31.725Z,99832.09
2024-03-02T00:13:58.872Z,99830.30
2024-03-02T00:16:31.645Z,99833.73
2024-03-02T00:19:03.174Z,99831.44
2024-03-02T00:21:32.451Z,99831.40
2024-03-02T00:24:01.245Z,99831.27
2024-03-02T00:26:28.448Z,99826.64
2024-03-02T00:28:58.591Z,99825.94
2024-03-02T00:31:26.852Z,99825.58
2024-03-02T00:33:54.918Z,99824.55
2024-03-02T00:36:28.631Z,99826.31
2024-03-02T00:38:56.512Z,99827.58
2024-03-02T00:41:29.118Z,99830.80
2024-03-02T00:43:59.617Z,99834.25
2024-03-02T00:46:33.432Z,99831.02
2024-03-02T00:49:02.932Z,99827.35
2024-03-02T00:51:36.066Z,99824.09
2024-03-02T00:54:07.751Z,99825.46
2024-03-02T00:56:36.276Z,99820.42
2024-03-02T00:59:03.626Z,99819.55
2024-03-02T01:01:30.939Z,99816.64
2024-03-02T01:03:58.247Z,99814.55
2024-03-02T01:06:25.495Z,99811.78
2024-03-02T01:08:53.637Z,99809.53
2024-03-02T01:11:24.814Z,99807.65
2024-03-02T01:13:53.996Z,99810.30
2024-03-02T01:16:21.984Z,99810.41
2024-03-02T01:18:49.480Z,99809.91
2024-03-02T01:21:16.979Z,99805.52
2024-03-02T01:23:44.789Z,99811.89
2024-03-02T01:26:11.848Z,99808.30
2024-03-02T01:28:38.990Z,99806.55
2024-03-02T01:31:06.306Z,99803.31
2024-03-02T01:33:33.506Z,99804.27
2024-03-02T01:36:00.706Z,99806.60
2024-03-02T01:38:29.890Z,99802.55
2024-03-02T01:40:58.496Z,99804.64
2024-03-02T01:43:25.671Z,99802.20
2024-03-02T01:45:52.879Z,99801.10
2024-03-02T01:48:20.718Z,99800.09
2024-03-02T01:50:48.050Z,99794.27
2024-03-02T01:53:15.193Z,99787.23
2024-03-02T01:55:42.211Z,99781.61
2024-03-02T01:58:09.543Z,99779.02
2024-03-02T02:00:36.930Z,99775.75
2024-03-02T02:03:04.178Z,99771.02
2024-03-02T02:05:32.871Z,99772.55
2024-03-02T02:08:00.405Z,99767.77
2024-03-02T02:10:27.575Z,99762.58
2024-03-02T02:12:55.141Z,99767.67
2024-03-02T02:15:32.316Z,99767.54
2024-03-02T02:18:00.478Z,99773.94
2024-03-02T02:20:28.197Z,99772.41
2024-03-02T02:23:02.780Z,99771.07
2024-03-02T02:25:30.992Z,99769.80
2024-03-02T02:27:59.672Z,99766.74
2024-03-02T02:30:29.865Z,99770.16
2024-03-02T02:32:57.553Z,99768.56
2024-03-02T02:35:27.965Z,99762.73
2024-03-02T02:37:57.302Z,99759.84
2024-03-02T02:40:24.951Z,99753.23
2024-03-02T02:42:55.496Z,99754.62
2024-03-02T02:45:23.041Z,99756.07
2024-03-02T02:47:51.140Z,99757.70
2024-03-02T02:50:18.564Z,99756.70
2024-03-02T02:52:45.867Z,99761.27
2024-03-02T02:55:14.768Z,99768.71
2024-03-02T02:57:44.514Z,99773.40
2024-03-02T03:00:18.459Z,99771.30
2024-03-02T03:02:49.190Z,99768.95
2024-03-02T03:05:17.692Z,99771.95
2024-03-02T03:07:46.195Z,99771.24
2024-03-02T03:10:14.983Z,99769.02
2024-03-02T03:12:44.981Z,99773.31
2024-03-02T03:15:15.878Z,99773.88
2024-03-02T03:17:43.286Z,99770.71
2024-03-02T03:20:11.322Z,99765.67
2024-03-02T03:22:39.648Z,99769.36
2024-03-02T03:25:09.721Z,99773.97
2024-03-02T03:27:37.469Z,99779.00
2024-03-02T03:30:05.094Z,99777.31
2024-03-02T03:32:32.167Z,99771.83
2024-03-02T03:34:59.370Z,99771.32
2024-03-02T03:37:28.878Z,99772.98
2024-03-02T03:39:56.085Z,99770.88
2024-03-02T03:42:23.229Z,99768.80
2024-03-02T03:44:50.279Z,99764.62
2024-03-02T03:47:17.429Z,99770.42
2024-03-02T03:49:44.601Z,99769.18
2024-03-02T03:52:11.737Z,99771.56
2024-03-02T03:54:39.774Z,99774.30
2024-03-02T03:57:07.174Z,99766.94
2024-03-02T03:59:34.434Z,99765.40
2024-03-02T04:02:01.482Z,99753.90
2024-03-02T04:04:28.584Z,99757.31
2024-03-02T04:06:56.019Z,99756.19
2024-03-02T04:09:23.291Z,99753.59
2024-03-02T04:11:50.602Z,99752.19
2024-03-02T04:14:17.885Z,99750.01
2024-03-02T04:16:44.896Z,99749.38
2024-03-02T04:19:12.385Z,99754.41
2024-03-02T04:21:39.597Z,99757.39
2024-03-02T04:24:06.708Z,99763.84
2024-03-02T04:26:33.780Z,99765.73
2024-03-02T04:29:01.091Z,99767.15
2024-03-02T04:31:28.204Z,99768.63
2024-03-02T04:33:55.456Z,99766.73
2024-03-02T04:36:22.845Z,99766.14
2024-03-02T04:38:50.048Z,99768.91
2024-03-02T04:41:17.400Z,99765.42
2024-03-02T04:43:44.421Z,99765.01
2024-03-02T04:46:12.309Z,99766.48
2024-03-02T04:48:39.707Z,99767.95
2024-03-02T04:51:06.873Z,99765.61
2024-03-02T04:53:33.971Z,99770.77
2024-03-02T04:56:19.441Z,99771.36
2024-03-02T04:58:46.553Z,99769.98
2024-03-02T05:01:13.846Z,99773.51
2024-03-02T05:03:41.002Z,99772.65
2024-03-02T05:06:08.999Z,99771.74
2024-03-02T05:08:36.106Z,99770.52
2024-03-02T05:11:23.683Z,99770.41
2024-03-02T05:13:50.746Z,99770.91
2024-03-02T05:16:17.908Z,99773.06
2024-03-02T05:18:45.049Z,99776.16
2024-03-02T05:21:12.786Z,99775.87
2024-03-02T05:23:40.324Z,99779.64
2024-03-02T05:26:07.638Z,99781.06
2024-03-02T05:28:34.792Z,99786.63
2024-03-02T05:31:02.032Z,99786.30
2024-03-02T05:33:30.090Z,99785.84
2024-03-02T05:35:57.240Z,99790.39
2024-03-02T05:38:24.485Z,99796.64
2024-03-02T05:40:51.762Z,99795.30
2024-03-02T05:43:19.509Z,99799.43
2024-03-02T05:45:46.669Z,99800.08
2024-03-02T05:48:14.457Z,99802.89
2024-03-02T05:50:41.514Z,99800.95
2024-03-02T05:53:09.009Z,99801.19
2024-03-02T05:55:36.966Z,99800.66
2024-03-02T05:58:06.886Z,99806.20
2024-03-02T06:00:34.557Z,99808.10
2024-03-02T06:03:01.813Z,99804.66
2024-03-02T06:05:29.207Z,99810.57
2024-03-02T06:07:56.310Z,99814.27
2024-03-02T06:10:23.313Z,99814.77
2024-03-02T06:12:50.485Z,99823.61
2024-03-02T06:15:18.396Z,99825.47
2024-03-02T06:17:45.644Z,99820.77
2024-03-02T06:20:12.927Z,99824.55
2024-03-02T06:22:40.010Z,99834.99
2024-03-02T06:25:07.614Z,99836.27
2024-03-02T06:27:34.908Z,99833.74
2024-03-02T06:30:02.161Z,99827.15
2024-03-02T06:32:29.256Z,99826.98
2024-03-02T06:34:56.368Z,99823.93
2024-03-02T06:37:23.493Z,99817.66
2024-03-02T06:39:50.534Z,99818.36
2024-03-02T06:42:17.668Z,99817.59
2024-03-02T06:44:45.016Z,99818.29
2024-03-02T06:47:12.711Z,99820.66
2024-03-02T06:49:39.857Z,99819.74
2024-03-02T06:52:07.687Z,99821.02
2024-03-02T06:54:36.079Z,99821.83
2024-03-02T06:57:03.334Z,99821.83
2024-03-02T06:59:30.690Z,99827.60
2024-03-02T07:01:58.225Z,99833.50
2024-03-02T07:04:25.321Z,99836.73
2024-03-02T07:06:52.421Z,99831.05
2024-03-02T07:09:23.872Z,99836.88
2024-03-02T07:11:52.557Z,99840.13
2024-03-02T07:14:19.888Z,99839.98
2024-03-02T07:16:47.019Z,99839.31
2024-03-02T07:19:14.224Z,99849.38
2024-03-02T07:21:41.562Z,99842.45
2024-03-02T07:24:10.690Z,99841.89
2024-03-02T07:29:07.989Z,99850.25
2024-03-02T07:31:35.552Z,99846.58
2024-03-02T07:34:03.273Z,99850.89
2024-03-02T07:36:30.449Z,99853.17
2024-03-02T07:38:57.778Z,99858.60
2024-03-02T07:41:25.107Z,99857.85
2024-03-02T07:43:52.302Z,99858.75
2024-03-02T07:46:19.450Z,99857.62
2024-03-02T07:48:46.709Z,99865.02
2024-03-02T07:51:15.136Z,99863.59
2024-03-02T07:53:42.624Z,99865.18
2024-03-02T07:56:09.871Z,99869.53
2024-03-02T07:58:38.074Z,99869.70
2024-03-02T08:01:05.301Z,99877.05
2024-03-02T08:03:33.669Z,99878.59
2024-03-02T08:06:01.516Z,99876.14
2024-03-02T08:08:28.547Z,99879.98
2024-03-02T08:10:56.180Z,99883.80
2024-03-02T08:13:24.075Z,99885.86
2024-03-02T08:15:51.249Z,99891.50
2024-03-02T08:18:18.460Z,99894.23
2024-03-02T08:20:46.353Z,99895.39
2024-03-02T08:23:13.590Z,99897.65
2024-03-02T08:25:40.743Z,99905.34
2024-03-02T08:28:07.929Z,99895.52
2024-03-02T08:30:35.223Z,99905.69
2024-03-02T08:33:02.229Z,99897.45
2024-03-02T08:35:29.368Z,99905.16
2024-03-02T08:37:56.966Z,99903.48
2024-03-02T08:40:24.081Z,99905.54
2024-03-02T08:42:51.556Z,99898.40
2024-03-02T08:45:21.490Z,99901.54
2024-03-02T08:47:49.510Z,99897.80
2024-03-02T08:50:17.056Z,99901.88
2024-03-02T08:52:44.457Z,99902.06
2024-03-02T08:55:12.626Z,99901.05
2024-03-02T08:57:39.860Z,99896.38
2024-03-02T09:00:09.591Z,99903.61
2024-03-02T09:02:36.788Z,99900.33
2024-03-02T09:05:04.224Z,99893.48
2024-03-02T09:07:31.317Z,99897.43
2024-03-02T09:09:58.441Z,99902.75
2024-03-02T09:12:25.645Z,99902.58
2024-03-02T09:14:52.795Z,99890.62
2024-03-02T09:17:20.006Z,99888.21
2024-03-02T09:19:47.097Z,99890.71
2024-03-02T09:22:14.539Z,99895.21
2024-03-02T09:24:41.717Z,99897.34
2024-03-02T09:27:08.809Z,99903.94
2024-03-02T09:29:35.932Z,99904.66
2024-03-02T09:32:03.552Z,99906.46
2024-03-02T09:34:30.667Z,99908.74
2024-03-02T09:36:57.864Z,99907.13
2024-03-02T09:39:26.656Z,99917.02
2024-03-02T09:41:54.804Z,99922.73
2024-03-02T09:44:23.515Z,99925.06
2024-03-02T09:46:50.914Z,99923.00
2024-03-02T09:49:18.457Z,99926.55
2024-03-02T09:51:50.169Z,99928.18
2024-03-02T09:54:22.600Z,99924.90
2024-03-02T09:56:52.593Z,99930.20
2024-03-02T09:59:21.974Z,99931.16
2024-03-02T10:02:02.218Z,99918.20
2024-03-02T10:04:33.262Z,99916.86
2024-03-02T10:07:20.577Z,99915.98
2024-03-02T10:09:49.452Z,99910.66
2024-03-02T10:12:18.283Z,99905.12
2024-03-02T10:14:46.198Z,99900.34
2024-03-02T10:17:14.627Z,99898.16
2024-03-02T10:19:41.976Z,99892.52
2024-03-02T10:22:10.977Z,99896.70
2024-03-02T10:24:43.477Z,99892.75
2024-03-02T10:27:16.083Z,99891.27
2024-03-02T10:29:43.735Z,99895.11
2024-03-02T10:32:14.892Z,99897.15
2024-03-02T10:34:43.662Z,99893.50
2024-03-02T10:37:12.546Z,99891.84
2024-03-02T10:39:41.802Z,99893.91
2024-03-02T10:42:10.612Z,99888.77
2024-03-02T10:44:37.890Z,99889.48
2024-03-02T10:47:06.559Z,99891.24
2024-03-02T10:49:34.542Z,99886.21
2024-03-02T10:52:02.856Z,99888.35
2024-03-02T10:54:38.205Z,99887.52
2024-03-02T10:57:06.734Z,99882.36
2024-03-02T10:59:36.652Z,99880.55
2024-03-02T11:02:06.533Z,99879.71
2024-03-02T11:04:36.554Z,99875.67
2024-03-02T11:07:10.357Z,99879.33
2024-03-02T11:09:43.237Z,99874.93
2024-03-02T11:12:19.706Z,99871.56
2024-03-02T11:14:47.052Z,99865.38
2024-03-02T11:17:19.738Z,99857.65
2024-03-02T11:19:48.509Z,99860.01
2024-03-02T11:22:16.800Z,99859.05
2024-03-02T11:24:52.124Z,99856.20
2024-03-02T11:27:47.417Z,99857.16
2024-03-02T11:30:33.952Z,99854.14
2024-03-02T11:33:12.939Z,99854.14
2024-03-02T11:35:49.904Z,99851.38
2024-03-02T11:38:18.763Z,99852.27
2024-03-02T11:40:46.475Z,99852.76
2024-03-02T11:43:13.899Z,99851.11
2024-03-02T11:45:45.868Z,99847.84
2024-03-02T11:48:16.546Z,99844.21
2024-03-02T11:50:48.724Z,99839.61
2024-03-02T11:53:16.235Z,99836.69
2024-03-02T11:55:48.132Z,99837.98
2024-03-02T11:58:22.106Z,99841.38
2024-03-02T12:00:52.783Z,99843.33
2024-03-02T12:03:23.127Z,99845.21
2024-03-02T12:05:56.698Z,99845.10
2024-03-02T12:08:24.883Z,99843.71
2024-03-02T12:11:04.374Z,99842.72
2024-03-02T12:13:32.743Z,99848.58
2024-03-02T12:16:00.517Z,99847.43
2024-03-02T12:18:28.183Z,99845.17
2024-03-02T12:20:59.133Z,99846.27
2024-03-02T12:23:26.806Z,99846.09
2024-03-02T12:25:54.356Z,99846.63
2024-03-02T12:28:21.885Z,99846.00
2024-03-02T12:30:50.417Z,99846.02
2024-03-02T12:33:18.248Z,99840.43
2024-03-02T12:35:45.454Z,99840.09
2024-03-02T12:38:12.698Z,99840.85
2024-03-02T12:40:39.839Z,99836.95
2024-03-02T12:43:08.238Z,99838.98
2024-03-02T12:45:38.841Z,99834.62
2024-03-02T12:48:06.560Z,99835.13
2024-03-02T12:50:35.300Z,99835.63
2024-03-02T12:53:03.134Z,99825.55
2024-03-02T12:55:31.792Z,99823.45
2024-03-02T12:58:00.678Z,99826.48
2024-03-02T13:00:28.310Z,99819.89
2024-03-02T13:03:03.030Z,99818.05
2024-03-02T13:05:34.056Z,99824.08
2024-03-02T13:08:04.383Z,99827.24
2024-03-02T13:10:32.159Z,99830.31
2024-03-02T13:12:59.290Z,99831.78
2024-03-02T13:15:29.514Z,99835.30
2024-03-02T13:18:01.661Z,99832.89
2024-03-02T13:20:33.639Z,99833.64
2024-03-02T13:23:00.747Z,99832.43
2024-03-02T13:25:29.563Z,99832.20
2024-03-02T13:27:58.121Z,99831.52
2024-03-02T13:30:25.234Z,99829.41
2024-03-02T13:32:52.354Z,99826.98
2024-03-02T13:35:19.563Z,99829.64
2024-03-02T13:37:46.690Z,99832.05
2024-03-02T13:40:19.083Z,99828.10
2024-03-02T13:42:46.387Z,99826.73
2024-03-02T13:45:14.469Z,99828.54
2024-03-02T13:47:41.681Z,99829.70
2024-03-02T13:50:08.975Z,99827.78
2024-03-02T13:52:36.047Z,99827.09
2024-03-02T13:55:03.552Z,99828.01
2024-03-02T13:57:31.595Z,99829.42
2024-03-02T13:59:58.805Z,99830.45
2024-03-02T14:02:27.131Z,99828.98
2024-03-02T14:04:54.222Z,99823.63
2024-03-02T14:07:21.300Z,99826.85
2024-03-02T14:09:48.561Z,99823.16
2024-03-02T14:12:15.629Z,99823.81
2024-03-02T14:14:43.192Z,99826.45
2024-03-02T14:17:15.689Z,99831.67
2024-03-02T14:19:42.859Z,99830.06
2024-03-02T14:22:09.925Z,99832.27
2024-03-02T14:24:37.027Z,99834.15
2024-03-02T14:27:14.769Z,99836.79
2024-03-02T14:29:47.490Z,99827.55
2024-03-02T14:32:15.085Z,99831.52
2024-03-02T14:34:42.346Z,99830.92
2024-03-02T14:37:09.789Z,99833.17
2024-03-02T14:39:37.817Z,99832.49
2024-03-02T14:42:05.649Z,99837.50
2024-03-02T14:44:32.658Z,99835.20
2024-03-02T14:47:00.222Z,99834.91
2024-03-02T14:49:28.142Z,99834.87
2024-03-02T14:51:55.521Z,99835.33
2024-03-02T14:54:23.054Z,99833.53
2024-03-02T14:56:50.738Z,99831.02
2024-03-02T14:59:18.170Z,99824.95
2024-03-02T15:01:46.161Z,99823.45
2024-03-02T15:04:13.603Z,99820.25
2024-03-02T15:06:41.317Z,99821.98
2024-03-02T15:09:09.271Z,99817.57
2024-03-02T15:11:36.459Z,99823.25
2024-03-02T15:14:03.893Z,99824.34
2024-03-02T15:16:31.242Z,99821.14
2024-03-02T15:18:58.394Z,99822.57
2024-03-02T15:21:25.476Z,99820.56
2024-03-02T15:23:52.721Z,99825.09
2024-03-02T15:26:19.786Z,99823.17
2024-03-02T15:28:46.939Z,99821.08
2024-03-02T15:31:14.077Z,99819.91
2024-03-02T15:33:41.352Z,99822.38
2024-03-02T15:36:08.703Z,99826.85
2024-03-02T15:38:41.149Z,99826.95
2024-03-02T15:41:09.728Z,99827.02
2024-03-02T15:43:40.461Z,99828.39
2024-03-02T15:46:08.560Z,99827.59
2024-03-02T15:48:36.407Z,99830.12
2024-03-02T15:51:06.780Z,99828.84
2024-03-02T15:53:34.403Z,99828.64
2024-03-02T15:56:01.917Z,99823.36
2024-03-02T15:58:29.110Z,99822.19
2024-03-02T16:00:57.152Z,99819.73
2024-03-02T16:03:24.342Z,99823.41
2024-03-02T16:05:51.575Z,99824.51
2024-03-02T16:08:18.713Z,99820.40
2024-03-02T16:10:45.694Z,99823.09
2024-03-02T16:13:12.763Z,99821.70
2024-03-02T16:15:39.801Z,99821.49
2024-03-02T16:18:07.182Z,99824.31
2024-03-02T16:20:34.891Z,99827.48
2024-03-02T16:23:02.037Z,99823.88
2024-03-02T16:25:30.106Z,99829.34
2024-03-02T16:27:57.205Z,99829.95
2024-03-02T16:30:26.450Z,99831.31
2024-03-02T16:32:53.582Z,99826.55
2024-03-02T16:35:20.657Z,99827.30
2024-03-02T16:37:47.756Z,99827.33
2024-03-02T16:40:15.191Z,99827.95
2024-03-02T16:42:43.136Z,99834.80
2024-03-02T16:45:10.569Z,99832.67
2024-03-02T16:47:37.796Z,99832.62
2024-03-02T16:50:08.022Z,99835.63
2024-03-02T16:52:35.496Z,99840.71
2024-03-02T16:55:04.911Z,99841.59
2024-03-02T16:57:32.893Z,99844.69
2024-03-02T17:00:00.383Z,99844.37
2024-03-02T17:02:28.322Z,99845.06
2024-03-02T17:04:55.444Z,99844.52
2024-03-02T17:07:25.566Z,99845.86
2024-03-02T17:09:54.518Z,99852.15
2024-03-02T17:12:22.425Z,99847.55
2024-03-02T17:14:49.681Z,99849.69
2024-03-02T17:17:18.734Z,99847.86
2024-03-02T17:19:45.770Z,99847.75
2024-03-02T17:22:13.002Z,99848.00
2024-03-02T17:24:40.159Z,99852.91
2024-03-02T17:27:07.263Z,99852.77
2024-03-02T17:29:35.840Z,99848.39
2024-03-02T17:32:03.123Z,99855.05
2024-03-02T17:34:30.802Z,99851.85
2024-03-02T17:36:57.936Z,99852.45
2024-03-02T17:39:25.022Z,99852.09
2024-03-02T17:41:52.548Z,99854.19
2024-03-02T17:44:19.992Z,99849.52
2024-03-02T17:46:47.271Z,99851.51
2024-03-02T17:49:16.421Z,99852.51
2024-03-02T17:51:44.685Z,99855.46
2024-03-02T17:54:11.799Z,99857.66
2024-03-02T17:56:38.836Z,99860.27
2024-03-02T17:59:06.156Z,99861.17
2024-03-02T18:01:33.443Z,99865.59
2024-03-02T18:04:00.675Z,99869.89
2024-03-02T18:06:27.803Z,99868.15
2024-03-02T18:08:54.953Z,99871.70
2024-03-02T18:11:25.585Z,99871.31
2024-03-02T18:13:52.888Z,99874.77
2024-03-02T18:16:20.463Z,99872.46
2024-03-02T18:18:48.139Z,99877.95
2024-03-02T18:21:15.709Z,99880.02
2024-03-02T18:23:43.369Z,99882.12
2024-03-02T18:26:10.513Z,99881.80
2024-03-02T18:28:39.226Z,99883.08
2024-03-02T18:31:08.009Z,99888.98
2024-03-02T18:33:35.318Z,99886.08
2024-03-02T18:36:02.469Z,99886.14
2024-03-02T18:38:29.694Z,99890.94
2024-03-02T18:40:56.898Z,99887.29
2024-03-02T18:43:23.953Z,99887.73
2024-03-02T18:45:51.089Z,99889.84
2024-03-02T18:48:18.405Z,99885.54
2024-03-02T18:50:45.852Z,99888.80
2024-03-02T18:53:14.010Z,99892.11
2024-03-02T18:55:41.115Z,99889.88
2024-03-02T18:58:08.330Z,99891.40
2024-03-02T19:00:35.631Z,99891.59
2024-03-02T19:03:02.879Z,99890.48
2024-03-02T19:05:31.200Z,99894.84
2024-03-02T19:07:58.439Z,99896.88
2024-03-02T19:10:25.746Z,99896.55
2024-03-02T19:12:52.871Z,99892.05
2024-03-02T19:15:20.026Z,99891.16
2024-03-02T19:17:47.345Z,99891.00
2024-03-02T19:20:15.572Z,99893.53
2024-03-02T19:22:43.416Z,99895.42
2024-03-02T19:25:12.766Z,99895.08
2024-03-02T19:27:40.130Z,99895.45
2024-03-02T19:30:09.271Z,99895.95
2024-03-02T19:32:36.638Z,99896.06
2024-03-02T19:35:04.526Z,99892.68
2024-03-02T19:37:31.962Z,99894.04
2024-03-02T19:39:59.086Z,99892.91
2024-03-02T19:42:26.208Z,99889.83
2024-03-02T19:44:53.236Z,99890.71
2024-03-02T19:47:20.750Z,99889.60
2024-03-02T19:49:48.067Z,99891.72
2024-03-02T19:52:16.171Z,99886.80
2024-03-02T19:54:43.438Z,99889.54
2024-03-02T19:57:10.583Z,99888.23
2024-03-02T19:59:37.727Z,99887.59
2024-03-02T20:02:11.512Z,99890.46
2024-03-02T20:04:40.027Z,99890.16
2024-03-02T20:07:07.203Z,99892.29
2024-03-02T20:09:34.632Z,99891.98
2024-03-02T20:12:01.983Z,99890.61
2024-03-02T20:14:29.064Z,99891.20
2024-03-02T20:16:56.545Z,99890.64
2024-03-02T20:19:24.616Z,99887.04
2024-03-02T20:21:51.785Z,99887.08
2024-03-02T20:24:19.522Z,99890.43
2024-03-02T20:26:46.633Z,99889.20
2024-03-02T20:29:13.683Z,99890.59
2024-03-02T20:31:42.893Z,99889.08
2024-03-02T20:34:13.863Z,99895.38
2024-03-02T20:36:43.239Z,99893.73
2024-03-02T20:39:12.030Z,99891.21
2024-03-02T20:41:39.188Z,99888.48
2024-03-02T20:44:06.243Z,99891.10
2024-03-02T20:46:33.462Z,99894.23
2024-03-02T20:49:00.732Z,99896.39
2024-03-02T20:51:30.931Z,99894.73
2024-03-02T20:53:58.834Z,99893.58
2024-03-02T20:56:27.534Z,99890.05
2024-03-02T20:58:54.735Z,99891.71
2024-03-02T21:01:23.166Z,99890.31
2024-03-02T21:03:50.606Z,99887.89
2024-03-02T21:06:18.230Z,99887.55
2024-03-02T21:08:45.373Z,99888.33
2024-03-02T21:11:15.259Z,99887.52
2024-03-02T21:13:42.570Z,99884.90
2024-03-02T21:16:09.602Z,99884.73
2024-03-02T21:18:37.130Z,99889.09
2024-03-02T21:21:06.973Z,99886.98
2024-03-02T21:23:35.726Z,99885.74
2024-03-02T21:26:04.683Z,99884.02
2024-03-02T21:28:32.017Z,99882.13
2024-03-02T21:30:59.121Z,99880.51
2024-03-02T21:33:29.465Z,99878.94
2024-03-02T21:35:56.596Z,99875.73
2024-03-02T21:38:25.070Z,99874.27
2024-03-02T21:40:52.250Z,99874.48
2024-03-02T21:43:20.038Z,99877.58
2024-03-02T21:45:47.383Z,99878.17
2024-03-02T21:48:14.579Z,99876.52
2024-03-02T21:50:42.586Z,99875.25
2024-03-02T21:53:09.669Z,99876.36
2024-03-02T21:55:37.000Z,99872.67
2024-03-02T21:58:05.035Z,99875.98
2024-03-02T22:00:32.368Z,99875.92
2024-03-02T22:02:59.752Z,99874.30
2024-03-02T22:05:27.470Z,99875.01
2024-03-02T22:07:56.062Z,99872.34
2024-03-02T22:10:23.306Z,99877.08
2024-03-02T22:12:50.468Z,99874.88
2024-03-02T22:15:17.553Z,99875.11
2024-03-02T22:17:44.727Z,99873.38
2024-03-02T22:20:12.428Z,99873.48
2024-03-02T22:22:41.849Z,99873.10
2024-03-02T22:25:09.643Z,99875.15
2024-03-02T22:27:41.694Z,99871.98
2024-03-02T22:30:09.920Z,99871.10
2024-03-02T22:32:37.410Z,99874.13
2024-03-02T22:35:05.212Z,99873.27
2024-03-02T22:37:32.250Z,99868.13
2024-03-02T22:39:59.322Z,99866.55
2024-03-02T22:42:26.406Z,99866.98
2024-03-02T22:44:54.211Z,99868.02
2024-03-02T22:47:21.360Z,99870.21
2024-03-02T22:49:48.762Z,99868.91
2024-03-02T22:52:15.842Z,99867.49
2024-03-02T22:54:43.005Z,99869.85
2024-03-02T22:57:18.155Z,99871.32
2024-03-02T22:59:56.094Z,99867.33
2024-03-02T23:02:25.072Z,99866.02
2024-03-02T23:04:52.624Z,99868.56
2024-03-02T23:07:24.166Z,99870.98
2024-03-02T23:09:51.506Z,99868.82
2024-03-02T23:12:18.729Z,99869.28
2024-03-02T23:14:46.018Z,99871.90
2024-03-02T23:17:13.155Z,99873.33
2024-03-02T23:19:40.211Z,99876.17
2024-03-02T23:22:07.617Z,99873.98
2024-03-02T23:24:34.856Z,99877.66
2024-03-02T23:27:01.936Z,99875.33
2024-03-02T23:29:28.997Z,99872.37
2024-03-02T23:31:56.112Z,99870.19
2024-03-02T23:34:23.243Z,99869.70
2024-03-02T23:36:50.628Z,99870.34
2024-03-02T23:39:38.223Z,99867.16
2024-03-02T23:42:06.489Z,99871.43
2024-03-02T23:44:33.596Z,99868.48
2024-03-02T23:47:00.777Z,99866.75
2024-03-02T23:49:27.918Z,99864.11
2024-03-02T23:51:55.398Z,99866.34
2024-03-02T23:54:22.540Z,99865.85
2024-03-02T23:56:49.634Z,99868.05
2024-03-02T23:59:16.755Z,99864.40
